createdAt,value
2018-11-20T00:02:05.548Z,0.70
2018-11-20T00:04:57.083Z,0.60
2018-11-20T00:07:44.071Z,0.70
2018-11-20T00:11:09.440Z,0.60
2018-11-20T00:14:00.356Z,0.70
2018-11-20T00:16:54.768Z,0.80
2018-11-20T00:19:46.469Z,0.80
2018-11-20T00:22:47.244Z,0.80
2018-11-20T00:25:34.729Z,0.70
2018-11-20T00:28:32.234Z,0.70
2018-11-20T00:31:25.304Z,0.50
2018-11-20T00:34:22.547Z,0.50
2018-11-20T00:37:17.269Z,0.60
2018-11-20T00:40:14.689Z,0.70
2018-11-20T00:43:09.730Z,0.80
2018-11-20T00:45:57.358Z,0.70
2018-11-20T00:48:51.888Z,0.40
2018-11-20T00:51:58.190Z,0.50
2018-11-20T00:55:05.073Z,0.40
2018-11-20T00:57:48.641Z,0.50
2018-11-20T01:00:35.793Z,0.50
2018-11-20T01:03:30.363Z,0.30
2018-11-20T01:06:24.599Z,0.30
2018-11-20T01:09:11.693Z,0.40
2018-11-20T01:12:15.586Z,0.30
2018-11-20T01:15:07.500Z,0.40
2018-11-20T01:18:00.609Z,0.60
2018-11-20T01:21:00.981Z,0.60
2018-11-20T01:23:55.563Z,0.70
2018-11-20T01:26:41.628Z,0.60
2018-11-20T01:29:24.416Z,0.80
2018-11-20T01:32:11.644Z,0.50
2018-11-20T01:35:07.250Z,0.50
2018-11-20T01:37:46.898Z,0.50
2018-11-20T01:40:50.740Z,0.50
2018-11-20T01:43:48.575Z,0.40
2018-11-20T01:46:40.064Z,0.60
2018-11-20T01:49:38.271Z,0.80
2018-11-20T01:52:30.260Z,0.70
2018-11-20T01:55:17.424Z,0.80
2018-11-20T01:58:05.282Z,0.70
2018-11-20T02:00:52.242Z,0.90
2018-11-20T02:03:40.916Z,1.00
2018-11-20T02:06:38.328Z,1.00
2018-11-20T02:09:46.122Z,1.10
2018-11-20T02:12:33.330Z,1.00
2018-11-20T02:15:20.232Z,0.80
2018-11-20T02:18:11.883Z,0.90
2018-11-20T02:21:18.594Z,0.70
2018-11-20T02:23:57.549Z,0.80
2018-11-20T02:26:54.981Z,0.80
2018-11-20T02:29:42.160Z,0.90
2018-11-20T02:32:42.580Z,0.90
2018-11-20T02:35:31.260Z,0.80
2018-11-20T02:38:18.768Z,0.80
2018-11-20T02:41:10.560Z,0.70
2018-11-20T02:44:07.895Z,0.70
2018-11-20T02:46:56.564Z,0.70
2018-11-20T02:49:39.911Z,0.70
2018-11-20T02:52:27.158Z,0.60
2018-11-20T02:55:16.094Z,0.70
2018-11-20T02:58:02.913Z,0.90
2018-11-20T03:00:50.090Z,0.90
2018-11-20T03:03:50.943Z,1.00
2018-11-20T03:06:44.430Z,1.00
2018-11-20T03:09:35.951Z,0.90
2018-11-20T03:12:33.551Z,0.80
2018-11-20T03:15:20.642Z,0.80
2018-11-20T03:18:06.307Z,0.90
2018-11-20T03:20:46.139Z,0.90
2018-11-20T03:23:24.797Z,0.90
2018-11-20T03:26:22.005Z,1.00
2018-11-20T03:29:27.067Z,1.00
2018-11-20T03:32:21.603Z,1.20
2018-11-20T03:35:16.924Z,1.20
2018-11-20T03:38:20.215Z,1.10
2018-11-20T03:41:05.960Z,1.10
2018-11-20T03:44:12.545Z,1.20
2018-11-20T03:46:59.891Z,1.30
2018-11-20T03:52:46.233Z,1.20
2018-11-20T04:01:47.083Z,1.40
2018-11-20T04:04:45.172Z,1.40
2018-11-20T04:07:30.101Z,1.30
2018-11-20T04:10:26.780Z,1.30
2018-11-20T04:13:15.331Z,1.30
2018-11-20T04:16:07.561Z,1.30
2018-11-20T04:19:15.336Z,1.10
2018-11-20T04:22:16.062Z,1.30
2018-11-20T04:25:19.430Z,1.30
2018-11-20T04:27:59.788Z,1.40
2018-11-20T04:31:18.514Z,1.50
2018-11-20T04:34:09.703Z,1.60
2018-11-20T04:37:04.325Z,1.60
2018-11-20T04:39:55.784Z,1.60
2018-11-20T04:42:42.829Z,1.80
2018-11-20T04:45:33.969Z,1.80
2018-11-20T04:48:11.476Z,1.70
2018-11-20T04:50:59.998Z,1.70
2018-11-20T04:53:57.765Z,1.70
2018-11-20T04:56:55.286Z,1.70
2018-11-20T04:59:57.017Z,1.70
2018-11-20T05:02:43.795Z,1.70
2018-11-20T05:05:31.003Z,1.70
2018-11-20T05:08:37.624Z,1.80
2018-11-20T05:11:26.237Z,1.70
2018-11-20T05:14:13.019Z,1.80
2018-11-20T05:17:13.418Z,1.80
2018-11-20T05:20:03.879Z,1.80
2018-11-20T05:22:58.496Z,1.80
2018-11-20T05:25:53.214Z,1.70
2018-11-20T05:28:40.206Z,1.70
2018-11-20T05:31:29.092Z,1.60
2018-11-20T05:34:14.528Z,1.50
2018-11-20T05:37:03.431Z,1.60
2018-11-20T05:39:54.894Z,1.60
2018-11-20T05:42:42.120Z,1.80
2018-11-20T05:45:29.409Z,1.60
2018-11-20T05:48:16.486Z,1.60
2018-11-20T05:51:03.686Z,1.60
2018-11-20T05:53:50.727Z,1.50
2018-11-20T05:56:39.289Z,1.70
2018-11-20T05:59:26.367Z,1.80
2018-11-20T06:02:26.738Z,1.90
2018-11-20T06:05:18.045Z,2.00
2018-11-20T06:08:00.367Z,1.90
2018-11-20T06:11:04.244Z,1.70
2018-11-20T06:14:00.097Z,1.60
2018-11-20T06:16:57.627Z,1.70
2018-11-20T06:19:44.649Z,1.80
2018-11-20T06:22:46.224Z,1.60
2018-11-20T06:25:37.849Z,1.80
2018-11-20T06:28:35.494Z,1.80
2018-11-20T06:31:28.097Z,1.80
2018-11-20T06:34:31.818Z,1.70
2018-11-20T06:37:18.879Z,1.90
2018-11-20T06:40:19.307Z,2.00
2018-11-20T06:43:26.296Z,2.00
2018-11-20T06:46:12.982Z,2.10
2018-11-20T06:49:13.440Z,2.10
2018-11-20T06:52:08.599Z,2.20
2018-11-20T06:55:03.097Z,2.30
2018-11-20T06:57:42.064Z,2.20
2018-11-20T07:00:29.374Z,2.30
2018-11-20T07:03:18.146Z,2.30
2018-11-20T07:06:07.515Z,2.30
2018-11-20T07:08:54.082Z,2.30
2018-11-20T07:12:00.590Z,2.40
2018-11-20T07:15:00.122Z,2.40
2018-11-20T07:18:06.889Z,2.40
2018-11-20T07:21:01.631Z,2.30
2018-11-20T07:23:44.122Z,2.40
2018-11-20T07:26:44.888Z,2.60
2018-11-20T07:29:36.620Z,2.80
2018-11-20T07:32:31.380Z,2.80
2018-11-20T07:35:15.869Z,2.80
2018-11-20T07:38:05.485Z,2.70
2018-11-20T07:40:52.289Z,2.80
2018-11-20T07:43:37.087Z,3.20
2018-11-20T07:46:20.192Z,3.30
2018-11-20T07:49:13.333Z,3.50
2018-11-20T07:52:11.086Z,3.80
2018-11-20T07:55:14.841Z,4.00
2018-11-20T07:58:06.589Z,3.90
2018-11-20T08:00:53.996Z,3.90
2018-11-20T08:03:40.961Z,3.80
2018-11-20T08:06:41.640Z,3.80
2018-11-20T08:09:28.720Z,3.40
2018-11-20T08:12:17.675Z,3.50
2018-11-20T08:15:13.521Z,3.30
2018-11-20T08:18:02.288Z,3.20
2018-11-20T08:20:50.535Z,3.20
2018-11-20T08:23:50.829Z,3.10
2018-11-20T08:26:48.775Z,3.00
2018-11-20T08:29:43.561Z,3.10
2018-11-20T08:32:41.340Z,3.40
2018-11-20T08:35:28.567Z,3.50
2018-11-20T08:38:23.364Z,3.90
2018-11-20T08:41:11.049Z,4.30
2018-11-20T08:43:59.950Z,4.50
2018-11-20T08:46:55.195Z,4.80
2018-11-20T08:49:46.800Z,4.90
2018-11-20T08:52:38.748Z,5.20
2018-11-20T08:55:34.194Z,5.10
2018-11-20T08:58:21.398Z,5.60
2018-11-20T09:01:27.958Z,5.50
2018-11-20T09:04:15.862Z,5.70
2018-11-20T09:07:02.543Z,6.20
2018-11-20T09:10:07.133Z,7.00
2018-11-20T09:12:54.659Z,7.10
2018-11-20T09:15:43.262Z,6.80
2018-11-20T09:18:35.221Z,6.60
2018-11-20T09:21:22.396Z,6.70
2018-11-20T09:24:10.996Z,6.20
2018-11-20T09:27:06.178Z,6.20
2018-11-20T09:29:55.185Z,6.40
2018-11-20T09:32:42.564Z,6.30
2018-11-20T09:35:31.687Z,6.50
2018-11-20T09:38:20.182Z,6.40
2018-11-20T09:41:27.496Z,6.40
2018-11-20T09:44:20.266Z,7.00
2018-11-20T09:47:09.081Z,7.20
2018-11-20T09:50:12.410Z,7.20
2018-11-20T09:53:07.418Z,7.40
2018-11-20T09:55:57.060Z,7.70
2018-11-20T09:58:44.241Z,8.10
2018-11-20T10:01:38.817Z,8.30
2018-11-20T10:04:36.775Z,8.70
2018-11-20T10:07:23.706Z,9.30
2018-11-20T10:10:15.860Z,9.70
2018-11-20T10:13:07.220Z,9.60
2018-11-20T10:15:54.506Z,9.80
2018-11-20T10:18:41.594Z,9.60
2018-11-20T10:21:42.987Z,9.50
2018-11-20T10:24:31.699Z,9.50
2018-11-20T10:27:30.782Z,9.40
2018-11-20T10:30:18.153Z,9.50
2018-11-20T10:32:59.727Z,10.00
2018-11-20T10:35:39.593Z,10.70
2018-11-20T10:38:22.074Z,10.60
2018-11-20T10:41:22.607Z,9.80
2018-11-20T10:44:09.672Z,9.60
2018-11-20T10:47:16.328Z,9.50
2018-11-20T10:50:13.647Z,9.50
2018-11-20T10:53:05.301Z,9.60
2018-11-20T10:55:52.685Z,9.80
2018-11-20T10:58:42.015Z,9.40
2018-11-20T11:01:29.718Z,9.70
2018-11-20T11:04:18.592Z,9.80
2018-11-20T11:07:07.851Z,9.60
2018-11-20T11:09:55.994Z,9.60
2018-11-20T11:12:43.280Z,9.00
2018-11-20T11:15:44.418Z,8.30
2018-11-20T11:18:32.075Z,7.60
2018-11-20T11:21:30.534Z,6.90
2018-11-20T11:24:22.877Z,6.70
2018-11-20T11:27:10.217Z,6.70
2018-11-20T11:30:07.501Z,6.60
2018-11-20T11:33:08.497Z,6.60
2018-11-20T11:35:59.941Z,6.50
2018-11-20T11:38:47.299Z,6.30
2018-11-20T11:41:48.084Z,6.30
2018-11-20T11:44:39.537Z,6.30
2018-11-20T11:47:41.566Z,6.30
2018-11-20T11:50:29.031Z,6.10
2018-11-20T11:53:27.189Z,6.10
2018-11-20T11:56:26.228Z,6.30
2018-11-20T11:59:21.824Z,6.30
2018-11-20T12:07:47.116Z,6.60
2018-11-20T12:10:36.362Z,6.50
2018-11-20T12:13:40.854Z,6.50
2018-11-20T12:16:29.679Z,6.50
2018-11-20T12:19:21.339Z,6.50
2018-11-20T12:22:25.975Z,6.60
2018-11-20T12:25:14.251Z,6.60
2018-11-20T12:28:01.823Z,6.60
2018-11-20T12:30:53.953Z,6.60
2018-11-20T12:33:51.429Z,6.60
2018-11-20T12:36:48.994Z,6.70
2018-11-20T12:39:44.457Z,6.70
2018-11-20T12:42:36.010Z,6.80
2018-11-20T12:45:23.798Z,6.70
2018-11-20T12:48:22.388Z,6.70
2018-11-20T12:51:13.574Z,6.60
2018-11-20T12:54:06.279Z,6.60
2018-11-20T12:56:54.978Z,6.70
2018-11-20T12:59:48.382Z,6.60
2018-11-20T13:02:40.167Z,6.60
2018-11-20T13:05:41.777Z,6.70
2018-11-20T13:08:36.527Z,6.70
2018-11-20T13:11:31.271Z,6.80
2018-11-20T13:14:26.486Z,6.80
2018-11-20T13:17:17.962Z,6.80
2018-11-20T13:20:08.107Z,6.60
2018-11-20T13:23:03.334Z,6.50
2018-11-20T13:26:07.715Z,6.50
2018-11-20T13:29:08.424Z,6.50
2018-11-20T13:31:57.626Z,6.60
2018-11-20T13:34:44.599Z,6.50
2018-11-20T13:37:45.930Z,6.50
2018-11-20T13:41:10.729Z,6.60
2018-11-20T13:44:08.602Z,6.60
2018-11-20T13:47:15.266Z,6.60
2018-11-20T13:50:08.992Z,6.70
2018-11-20T13:53:04.528Z,6.70
2018-11-20T13:56:02.497Z,6.80
2018-11-20T13:58:54.469Z,6.80
2018-11-20T14:01:41.830Z,6.70
2018-11-20T14:04:39.451Z,6.70
2018-11-20T14:07:43.877Z,6.70
2018-11-20T14:10:31.897Z,6.70
2018-11-20T14:13:19.552Z,6.70
2018-11-20T14:16:07.149Z,6.70
2018-11-20T14:19:11.296Z,6.80
2018-11-20T14:21:56.258Z,6.70
2018-11-20T14:24:44.538Z,6.70
2018-11-20T14:27:33.832Z,6.70
2018-11-20T14:30:32.027Z,6.70
2018-11-20T14:33:19.052Z,6.60
2018-11-20T14:36:15.227Z,6.60
2018-11-20T14:38:56.616Z,6.70
2018-11-20T14:41:45.359Z,6.70
2018-11-20T14:44:43.235Z,6.70
2018-11-20T14:47:30.247Z,6.70
2018-11-20T14:50:34.644Z,6.60
2018-11-20T14:53:29.595Z,6.60
2018-11-20T14:56:27.860Z,6.60
2018-11-20T14:59:17.303Z,6.60
2018-11-20T15:02:04.476Z,6.60
2018-11-20T15:04:52.187Z,6.60
2018-11-20T15:07:32.029Z,6.60
2018-11-20T15:10:22.139Z,6.50
2018-11-20T15:13:11.652Z,6.30
2018-11-20T15:15:59.224Z,6.10
2018-11-20T15:19:28.627Z,5.90
2018-11-20T15:22:16.680Z,6.20
2018-11-20T15:25:04.470Z,6.10
2018-11-20T15:27:55.476Z,6.10
2018-11-20T15:30:43.513Z,6.00
2018-11-20T15:33:39.224Z,5.90
2018-11-20T15:36:28.615Z,5.90
2018-11-20T15:39:13.338Z,5.90
2018-11-20T15:42:07.724Z,5.90
2018-11-20T15:45:04.732Z,5.90
2018-11-20T15:48:07.721Z,5.70
2018-11-20T15:50:54.227Z,5.70
2018-11-20T15:53:44.216Z,5.60
2018-11-20T15:56:35.834Z,5.40
2018-11-20T15:59:27.335Z,5.40
2018-11-20T16:02:14.641Z,5.30
2018-11-20T16:05:08.843Z,5.20
2018-11-20T16:08:06.276Z,5.20
2018-11-20T16:10:53.417Z,5.20
2018-11-20T16:13:35.428Z,5.10
2018-11-20T16:16:12.089Z,5.00
2018-11-20T16:19:12.119Z,5.00
2018-11-20T16:22:03.649Z,4.80
2018-11-20T16:25:03.601Z,4.80
2018-11-20T16:27:50.865Z,4.80
2018-11-20T16:30:56.943Z,4.80
2018-11-20T16:33:35.860Z,4.80
2018-11-20T16:36:21.820Z,4.80
2018-11-20T16:39:08.699Z,4.80
2018-11-20T16:41:57.214Z,4.90
2018-11-20T16:44:45.257Z,4.70
2018-11-20T16:47:32.138Z,4.70
2018-11-20T16:50:22.767Z,4.60
2018-11-20T16:53:11.635Z,4.50
2018-11-20T16:56:00.090Z,4.50
2018-11-20T16:58:40.277Z,4.40
2018-11-20T17:01:40.718Z,4.30
2018-11-20T17:04:35.016Z,4.30
2018-11-20T17:07:29.563Z,4.30
2018-11-20T17:10:15.756Z,4.20
2018-11-20T17:13:06.644Z,4.20
2018-11-20T17:15:51.430Z,4.10
2018-11-20T17:18:48.283Z,4.20
2018-11-20T17:21:42.432Z,4.10
2018-11-20T17:24:45.597Z,4.20
2018-11-20T17:27:32.351Z,4.20
2018-11-20T17:30:20.654Z,4.10
2018-11-20T17:33:23.979Z,4.10
2018-11-20T17:36:10.635Z,4.10
2018-11-20T17:38:58.009Z,4.00
2018-11-20T17:41:55.367Z,4.10
2018-11-20T17:44:41.882Z,4.00
2018-11-20T17:47:39.069Z,4.00
2018-11-20T17:50:26.627Z,4.10
2018-11-20T17:53:20.384Z,3.90
2018-11-20T17:56:07.187Z,3.80
2018-11-20T17:58:55.281Z,3.90
2018-11-20T18:01:50.178Z,3.90
2018-11-20T18:04:44.650Z,3.80
2018-11-20T18:07:39.046Z,3.80
2018-11-20T18:10:37.616Z,3.70
2018-11-20T18:13:21.812Z,3.70
2018-11-20T18:16:28.361Z,3.70
2018-11-20T18:19:22.328Z,3.70
2018-11-20T18:22:09.044Z,3.70
2018-11-20T18:24:55.665Z,3.50
2018-11-20T18:27:43.558Z,3.50
2018-11-20T18:30:30.850Z,3.50
2018-11-20T18:33:13.118Z,3.50
2018-11-20T18:36:03.649Z,3.50
2018-11-20T18:38:46.726Z,3.60
2018-11-20T18:41:49.985Z,3.50
2018-11-20T18:44:38.093Z,3.50
2018-11-20T18:47:29.447Z,3.30
2018-11-20T18:50:21.458Z,3.20
2018-11-20T18:53:08.351Z,3.30
2018-11-20T18:55:59.246Z,3.40
2018-11-20T18:58:47.241Z,3.40
2018-11-20T19:01:39.146Z,3.30
2018-11-20T19:04:39.156Z,3.30
2018-11-20T19:07:29.780Z,3.30
2018-11-20T19:10:24.136Z,3.20
2018-11-20T19:13:12.279Z,3.10
2018-11-20T19:16:00.430Z,3.00
2018-11-20T19:18:46.735Z,3.30
2018-11-20T19:21:27.111Z,3.20
2018-11-20T19:24:15.195Z,3.20
2018-11-20T19:27:04.147Z,3.30
2018-11-20T19:29:50.777Z,3.30
2018-11-20T19:32:27.225Z,3.30
2018-11-20T19:35:03.835Z,3.20
2018-11-20T19:37:57.979Z,3.00
2018-11-20T19:40:54.920Z,3.00
2018-11-20T19:43:43.543Z,2.90
2018-11-20T19:46:29.821Z,3.00
2018-11-20T19:49:17.814Z,2.90
2018-11-20T19:52:04.637Z,2.90
2018-11-20T19:54:47.950Z,2.90
2018-11-20T19:57:27.786Z,2.80
2018-11-20T20:00:15.948Z,2.70
2018-11-20T20:03:02.392Z,2.90
2018-11-20T20:05:56.879Z,2.80
2018-11-20T20:08:43.514Z,2.80
2018-11-20T20:11:35.612Z,2.80
2018-11-20T20:14:29.863Z,2.80
2018-11-20T20:17:20.695Z,2.80
2018-11-20T20:20:20.685Z,2.80
2018-11-20T20:23:07.480Z,2.80
2018-11-20T20:26:05.124Z,2.60
2018-11-20T20:28:52.250Z,2.60
2018-11-20T20:31:38.760Z,2.40
2018-11-20T20:34:36.866Z,2.20
2018-11-20T20:37:36.395Z,2.50
2018-11-20T20:40:24.337Z,2.40
2018-11-20T20:43:15.119Z,2.40
2018-11-20T20:45:58.485Z,2.50
2018-11-20T20:48:46.554Z,2.40
2018-11-20T20:51:40.196Z,2.50
2018-11-20T20:54:26.411Z,2.60
2018-11-20T20:57:15.691Z,2.50
2018-11-20T20:59:56.819Z,2.40
2018-11-20T21:02:46.384Z,2.40
2018-11-20T21:05:40.519Z,2.50
2018-11-20T21:08:28.175Z,2.50
2018-11-20T21:11:26.844Z,2.40
2018-11-20T21:14:17.821Z,2.50
2018-11-20T21:17:05.858Z,2.30
2018-11-20T21:20:03.874Z,2.40
2018-11-20T21:22:53.060Z,2.30
2018-11-20T21:25:41.265Z,2.20
2018-11-20T21:28:27.606Z,2.30
2018-11-20T21:31:14.897Z,2.30
2018-11-20T21:34:01.306Z,2.30
2018-11-20T21:36:47.242Z,2.30
2018-11-20T21:39:35.476Z,2.00
2018-11-20T21:42:22.439Z,2.10
2018-11-20T21:45:15.760Z,1.90
2018-11-20T21:47:59.255Z,1.80
2018-11-20T21:50:46.094Z,1.80
2018-11-20T21:53:26.757Z,1.80
2018-11-20T21:56:13.292Z,1.80
2018-11-20T21:59:10.272Z,1.80
2018-11-20T22:01:58.746Z,1.80
2018-11-20T22:04:45.565Z,1.80
2018-11-20T22:07:31.885Z,1.80
2018-11-20T22:10:19.221Z,1.70
2018-11-20T22:13:05.815Z,1.80
2018-11-20T22:15:53.699Z,1.80
2018-11-20T22:18:51.535Z,1.80
2018-11-20T22:21:42.295Z,1.70
2018-11-20T22:24:39.666Z,1.70
2018-11-20T22:27:26.228Z,1.70
2018-11-20T22:30:08.371Z,1.70
2018-11-20T22:32:55.133Z,1.70
2018-11-20T22:35:47.468Z,1.50
2018-11-20T22:38:35.600Z,1.50
2018-11-20T22:41:16.936Z,1.60
2018-11-20T22:44:11.710Z,1.40
2018-11-20T22:47:05.744Z,1.50
2018-11-20T22:50:05.679Z,1.50
2018-11-20T22:53:02.924Z,1.40
2018-11-20T22:55:49.567Z,1.50
2018-11-20T22:58:38.516Z,1.30
2018-11-20T23:01:29.461Z,1.30
2018-11-20T23:04:16.050Z,1.30
2018-11-20T23:07:02.590Z,1.20
2018-11-20T23:09:31.434Z,1.20
2018-11-20T23:12:00.140Z,1.30
2018-11-20T23:14:29.085Z,1.30
2018-11-20T23:16:57.870Z,1.30
2018-11-20T23:19:26.714Z,1.20
2018-11-20T23:21:55.661Z,1.30
2018-11-20T23:24:25.453Z,1.30
2018-11-20T23:26:54.490Z,1.30
2018-11-20T23:29:23.451Z,1.20
2018-11-20T23:31:52.236Z,1.30
2018-11-20T23:34:21.673Z,1.40
2018-11-20T23:36:50.536Z,1.40
2018-11-20T23:39:19.410Z,1.50
2018-11-20T23:41:48.215Z,1.40
2018-11-20T23:47:57.794Z,1.60
2018-11-20T23:50:26.651Z,1.80
2018-11-20T23:52:55.963Z,1.70
2018-11-20T23:55:25.206Z,1.70
2018-11-20T23:57:53.816Z,1.50
